Time;durP1;ratioP1;P1;durP2;ratioP2;P2;SDS_P1;SDS_P2;PMS_P1;PMS_P2;Temp;Humidity;BMP_temperature;BMP_pressure;BME280_temperature;BME280_humidity;BME280_pressure;Samples;Min_cycle;Max_cycle;Signal;HPM_P1;HPM_P2
2021/12/24 00:00:29;;;;;;;;;;;0.90;99.90;;;0.78;65.24;97462.78;5037075;28;20016;-78
2021/12/24 00:03:06;;;;;;;;;;;0.90;99.90;;;0.75;65.75;97456.06;5030776;28;19929;-79
2021/12/24 00:05:32;;;;;;;;;;;0.80;99.90;;;0.77;65.22;97453.97;5006254;28;20447;-79
2021/12/24 00:07:58;;;;;;;;;;;0.80;99.90;;;0.73;65.34;97450.16;5038490;28;20022;-78
2021/12/24 00:10:24;;;;;;;;;;;0.80;99.90;;;0.65;65.71;97448.72;5022561;28;20368;-79
2021/12/24 00:12:58;;;;;;;;;;;0.80;99.90;;;0.86;65.61;97441.03;5003652;28;20043;-78
2021/12/24 00:17:54;;;;;;;;;;;0.90;99.90;;;0.91;65.47;97432.28;5022623;28;19928;-78
2021/12/24 00:23:27;;;;;;;;;;;0.90;99.90;;;0.77;65.93;97415.81;5021733;28;20471;-78
2021/12/24 00:36:46;;;;;;;;;;;1.20;99.90;;;1.07;66.58;97402.88;5024064;28;20423;-78
2021/12/24 00:39:12;;;;;;;;;;;1.20;99.90;;;1.15;66.42;97400.84;5034483;28;19935;-78
2021/12/24 00:41:38;;;;;;;;;;;1.20;99.90;;;1.17;66.08;97398.72;5002894;28;19979;-78
2021/12/24 00:44:04;;;;;;;;;;;1.30;99.90;;;1.19;66.12;97375.25;5020567;28;20016;-79
2021/12/24 00:46:31;;;;;;;;;;;1.30;99.90;;;1.23;66.36;97382.53;5003274;28;19935;-78
2021/12/24 00:49:00;;;;;;;;;;;1.30;99.90;;;1.26;66.34;97374.00;5021341;28;19924;-78
2021/12/24 00:51:55;;;;;;;;;;;1.40;99.90;;;1.32;66.84;97374.06;5033594;28;19956;-78
2021/12/24 00:57:03;;;;;;;;;;;1.50;99.90;;;1.50;67.11;97366.56;5026355;28;19936;-79
2021/12/24 00:59:29;;;;;;;;;;;1.60;99.90;;;1.54;66.79;97350.00;5037957;28;20295;-79
2021/12/24 01:01:55;;;;;;;;;;;1.60;99.90;;;1.57;67.25;97349.50;5019520;28;20352;-79
2021/12/24 01:04:21;;;;;;;;;;;1.60;99.90;;;1.51;67.29;97346.78;5004993;28;20057;-79
2021/12/24 01:06:47;;;;;;;;;;;1.70;99.90;;;1.64;67.29;97344.78;5004549;28;20379;-78
2021/12/24 01:09:14;;;;;;;;;;;1.70;99.90;;;1.79;66.44;97336.91;5008224;28;20386;-78
2021/12/24 01:11:40;;;;;;;;;;;1.70;99.90;;;1.83;66.51;97330.00;5021503;28;19994;-79
2021/12/24 01:14:06;;;;;;;;;;;1.80;99.90;;;1.74;66.71;97329.66;5051236;28;19954;-79
2021/12/24 01:16:45;;;;;;;;;;;1.70;99.90;;;1.76;66.68;97326.72;5002701;28;19929;-79
2021/12/24 01:19:18;;;;;;;;;;;1.70;99.90;;;1.57;66.97;97326.25;5041068;28;19974;-79
2021/12/24 01:24:24;;;;;;;;;;;1.70;99.90;;;1.60;67.76;97312.38;5023130;28;20020;-79
2021/12/24 01:43:11;;;;;;;;;;;2.00;99.90;;;2.02;68.61;97281.50;4966841;28;19926;-79
2021/12/24 01:45:37;;;;;;;;;;;2.00;99.90;;;2.04;68.37;97274.81;5009332;28;19935;-79
2021/12/24 01:48:06;;;;;;;;;;;2.10;99.90;;;2.08;68.31;97267.09;5021599;28;19933;-79
2021/12/24 01:50:34;;;;;;;;;;;2.20;99.90;;;2.01;68.63;97266.50;5017824;28;19925;-79
2021/12/24 01:53:01;;;;;;;;;;;2.20;99.90;;;2.09;68.26;97266.03;5018648;28;20056;-79
2021/12/24 01:55:27;;;;;;;;;;;2.30;99.90;;;2.08;68.81;97259.84;5038142;28;19936;-79
2021/12/24 01:57:53;;;;;;;;;;;2.30;99.90;;;2.15;68.78;97259.66;5003550;28;19928;-79
2021/12/24 02:00:24;;;;;;;;;;;2.30;99.90;;;2.13;68.95;97259.09;5036921;28;19979;-79
2021/12/24 02:02:49;;;;;;;;;;;2.30;99.90;;;2.07;69.27;97244.88;5020432;28;20019;-79
2021/12/24 02:05:16;;;;;;;;;;;2.30;99.90;;;2.22;68.89;97249.53;5024061;28;20273;-79
2021/12/24 02:07:42;;;;;;;;;;;2.40;99.90;;;2.15;68.63;97252.44;5021156;28;19928;-79
2021/12/24 02:10:09;;;;;;;;;;;2.40;99.90;;;2.18;68.75;97243.09;5019057;28;19998;-80
2021/12/24 02:12:36;;;;;;;;;;;2.30;99.90;;;2.14;68.80;97228.63;5003352;28;20323;-79
2021/12/24 02:15:04;;;;;;;;;;;2.40;99.90;;;2.22;69.28;97224.66;5019375;28;19936;-79
2021/12/24 02:28:28;;;;;;;;;;;2.40;99.90;;;2.25;69.24;97205.41;5038789;28;19955;-80
2021/12/24 02:30:54;;;;;;;;;;;2.40;99.90;;;2.24;69.22;97215.31;5021928;28;19924;-80
2021/12/24 02:33:20;;;;;;;;;;;2.40;99.90;;;2.16;69.22;97203.22;5034372;28;19932;-80
2021/12/24 02:35:46;;;;;;;;;;;2.40;99.90;;;2.28;68.73;97189.63;5017820;28;19929;-80
2021/12/24 02:38:11;;;;;;;;;;;2.40;99.90;;;2.25;69.26;97200.84;5016276;28;19925;-80
2021/12/24 02:40:37;;;;;;;;;;;2.40;99.90;;;2.28;69.10;97194.97;5005094;28;19924;-80
2021/12/24 02:43:04;;;;;;;;;;;2.40;99.90;;;2.18;69.70;97190.38;5002798;28;19960;-80
2021/12/24 02:45:37;;;;;;;;;;;2.40;99.90;;;2.29;69.32;97185.91;5004883;28;19928;-79
2021/12/24 02:56:02;;;;;;;;;;;2.60;99.90;;;2.36;69.89;97175.75;5027021;28;19925;-79
2021/12/24 02:58:37;;;;;;;;;;;2.60;99.90;;;2.52;69.32;97162.44;5035040;28;20355;-79
2021/12/24 03:01:03;;;;;;;;;;;2.60;99.90;;;2.51;68.92;97161.63;5032835;28;19932;-79
2021/12/24 03:03:29;;;;;;;;;;;2.60;99.90;;;2.52;69.72;97163.28;5018657;28;19924;-79
2021/12/24 03:05:54;;;;;;;;;;;2.70;99.90;;;2.46;69.82;97150.13;5018353;28;19974;-80
2021/12/24 03:08:20;;;;;;;;;;;2.70;99.90;;;2.53;69.58;97166.75;5018907;28;19974;-80
2021/12/24 03:10:46;;;;;;;;;;;2.70;99.90;;;2.54;69.88;97161.09;5017166;28;19928;-79
2021/12/24 03:13:12;;;;;;;;;;;2.70;99.90;;;2.64;69.45;97165.69;5035137;28;19948;-80
2021/12/24 03:15:39;;;;;;;;;;;2.70;99.90;;;2.58;69.61;97153.38;5023275;28;20283;-79
2021/12/24 03:18:05;;;;;;;;;;;2.70;99.90;;;2.60;69.74;97148.56;5036552;28;19974;-79
2021/12/24 03:20:34;;;;;;;;;;;2.80;99.90;;;2.62;70.56;97146.44;5025071;28;19933;-80
2021/12/24 03:23:21;;;;;;;;;;;2.70;99.90;;;2.67;70.31;97143.78;5021199;28;19928;-79
2021/12/24 03:25:47;;;;;;;;;;;2.80;99.90;;;2.72;69.92;97151.00;5011953;28;19929;-79
2021/12/24 03:28:13;;;;;;;;;;;2.80;99.90;;;2.73;70.88;97155.31;5021174;28;19932;-80
2021/12/24 03:30:39;;;;;;;;;;;2.90;99.90;;;2.77;71.16;97149.16;5025646;28;19929;-80
2021/12/24 03:33:05;;;;;;;;;;;2.90;99.90;;;2.87;70.99;97150.25;5023312;28;19929;-80
2021/12/24 03:35:31;;;;;;;;;;;3.00;99.90;;;2.90;70.61;97136.31;5021748;28;20280;-79
2021/12/24 03:37:57;;;;;;;;;;;3.00;99.90;;;2.90;70.49;97129.13;4997966;28;19930;-79
2021/12/24 03:40:23;;;;;;;;;;;3.10;99.90;;;2.97;70.88;97116.25;5021374;28;20007;-79
2021/12/24 03:42:49;;;;;;;;;;;3.10;99.90;;;2.98;70.65;97125.91;5018955;28;20626;-79
2021/12/24 03:45:26;;;;;;;;;;;3.10;99.90;;;3.09;70.57;97128.59;5001885;28;19931;-79
2021/12/24 03:47:58;;;;;;;;;;;3.10;99.90;;;3.06;70.19;97129.94;5033473;28;20023;-79
2021/12/24 03:50:28;;;;;;;;;;;3.20;99.90;;;3.02;70.69;97132.31;5019884;28;19940;-79
2021/12/24 03:55:22;;;;;;;;;;;3.30;99.90;;;3.23;70.49;97119.78;5035434;28;19929;-79
2021/12/24 03:57:48;;;;;;;;;;;3.30;99.90;;;3.19;70.64;97118.69;5019611;28;19932;-79
2021/12/24 04:00:15;;;;;;;;;;;3.30;99.90;;;3.18;70.80;97109.06;5001368;28;19968;-79
2021/12/24 04:02:41;;;;;;;;;;;3.30;99.90;;;3.22;69.77;97112.78;5031411;28;19932;-79
2021/12/24 04:05:07;;;;;;;;;;;3.40;99.90;;;3.20;70.56;97111.44;5018427;28;19941;-79
2021/12/24 04:07:33;;;;;;;;;;;3.40;99.90;;;3.33;70.32;97102.88;5018293;28;20415;-79
2021/12/24 04:12:25;;;;;;;;;;;3.50;99.90;;;3.31;70.05;97099.69;5020192;28;19952;-79
2021/12/24 04:14:52;;;;;;;;;;;3.50;99.90;;;3.38;70.08;97113.59;5004779;28;19925;-79
2021/12/24 04:17:18;;;;;;;;;;;3.50;99.90;;;3.39;70.22;97109.06;5032495;28;19929;-79
2021/12/24 04:25:13;;;;;;;;;;;3.50;99.90;;;3.45;69.79;97089.22;5019385;28;20082;-79
2021/12/24 04:27:39;;;;;;;;;;;3.60;99.90;;;3.43;69.50;97094.03;5034445;28;19925;-79
2021/12/24 04:30:12;;;;;;;;;;;3.60;99.90;;;3.50;69.88;97091.09;5001203;28;20563;-79
2021/12/24 04:51:49;;;;;;;;;;;3.70;99.90;;;3.69;70.44;97076.84;5053594;28;20013;-80
2021/12/24 05:05:19;;;;;;;;;;;3.80;99.90;;;3.76;69.41;97065.81;5025885;28;19958;-80
2021/12/24 05:10:11;;;;;;;;;;;3.80;99.90;;;3.75;69.27;97061.56;5022510;28;20002;-80
2021/12/24 05:12:36;;;;;;;;;;;3.90;99.90;;;3.76;69.91;97065.81;5020607;28;20315;-80
2021/12/24 05:15:04;;;;;;;;;;;3.80;99.90;;;3.76;69.61;97070.41;5020602;28;19929;-80
2021/12/24 05:22:58;;;;;;;;;;;3.90;99.90;;;4.01;69.66;97064.16;5039128;28;19929;-80
2021/12/24 05:25:24;;;;;;;;;;;3.90;99.90;;;4.02;68.86;97053.16;5018973;28;19929;-80
2021/12/24 05:27:55;;;;;;;;;;;3.90;99.90;;;3.99;69.13;97052.88;5020521;28;19974;-80
2021/12/24 05:30:22;;;;;;;;;;;4.00;99.90;;;3.98;69.76;97059.34;5037228;28;19929;-80
2021/12/24 05:32:48;;;;;;;;;;;4.00;99.90;;;4.19;69.18;97060.06;5021959;28;19924;-80
2021/12/24 05:35:14;;;;;;;;;;;4.00;99.90;;;4.15;68.50;97057.13;5039310;28;19991;-80
2021/12/24 05:37:39;;;;;;;;;;;4.10;99.90;;;4.07;69.47;97058.50;5050591;28;20386;-80
2021/12/24 05:40:07;;;;;;;;;;;4.10;99.90;;;4.24;68.33;97057.34;5020693;28;19935;-81
2021/12/24 05:42:33;;;;;;;;;;;4.10;99.90;;;4.26;68.82;97058.69;5055822;28;19936;-84
2021/12/24 05:45:04;;;;;;;;;;;4.10;99.90;;;4.23;69.38;97061.94;5021016;28;19928;-84
2021/12/24 05:47:31;;;;;;;;;;;4.10;99.90;;;4.36;68.81;97057.84;5017614;28;19929;-84
2021/12/24 05:49:58;;;;;;;;;;;4.20;99.90;;;4.39;69.33;97057.28;5004335;28;19932;-84
2021/12/24 05:52:24;;;;;;;;;;;4.30;99.90;;;4.31;68.61;97049.81;5016792;28;19929;-83
2021/12/24 05:54:50;;;;;;;;;;;4.30;99.90;;;4.33;69.14;97051.16;5018055;28;19979;-83
2021/12/24 05:57:16;;;;;;;;;;;4.40;99.90;;;4.33;69.25;97061.88;5018091;28;20059;-84
2021/12/24 05:59:42;;;;;;;;;;;4.40;99.90;;;4.31;69.27;97050.63;5007536;28;19924;-83
2021/12/24 06:02:08;;;;;;;;;;;4.40;99.90;;;4.39;69.35;97056.50;5007313;28;20288;-83
2021/12/24 06:04:34;;;;;;;;;;;4.40;99.90;;;4.44;69.00;97057.25;5007200;28;19931;-83
2021/12/24 06:07:00;;;;;;;;;;;4.50;99.90;;;4.45;69.15;97052.69;5017459;28;19935;-83
2021/12/24 06:09:26;;;;;;;;;;;4.50;99.90;;;4.46;68.83;97049.75;5003478;28;19950;-83
2021/12/24 06:11:52;;;;;;;;;;;4.50;99.90;;;4.50;69.44;97041.91;5019866;28;20284;-83
2021/12/24 06:14:18;;;;;;;;;;;4.50;99.90;;;4.49;69.48;97059.91;5001338;28;20265;-83
2021/12/24 06:16:59;;;;;;;;;;;4.60;99.90;;;4.65;68.94;97057.16;5006247;28;20271;-82
2021/12/24 06:19:26;;;;;;;;;;;4.60;99.90;;;4.71;68.85;97058.75;5027172;28;19931;-83
2021/12/24 06:21:53;;;;;;;;;;;4.60;99.90;;;4.72;68.93;97049.59;5020059;28;19924;-82
2021/12/24 06:24:19;;;;;;;;;;;4.70;99.90;;;4.77;68.53;97052.25;5019348;28;19934;-82
2021/12/24 06:26:46;;;;;;;;;;;4.70;99.90;;;4.78;68.74;97051.16;5004457;28;20019;-82
2021/12/24 06:29:12;;;;;;;;;;;4.70;99.90;;;4.97;68.63;97057.47;5022735;28;19982;-82
2021/12/24 06:31:37;;;;;;;;;;;4.80;99.90;;;4.91;68.63;97060.47;5019100;28;19932;-82
2021/12/24 06:34:03;;;;;;;;;;;4.80;99.90;;;4.88;68.50;97063.72;5020641;28;19925;-82
2021/12/24 06:36:35;;;;;;;;;;;4.90;99.90;;;4.91;68.98;97050.53;5017755;28;19971;-82
2021/12/24 06:39:01;;;;;;;;;;;4.90;99.90;;;5.07;68.48;97058.50;5023434;28;19925;-82
2021/12/24 06:41:27;;;;;;;;;;;4.90;99.90;;;5.07;68.32;97056.59;5017919;28;19929;-82
2021/12/24 06:43:54;;;;;;;;;;;4.90;99.90;;;5.09;68.63;97061.69;5007067;28;19978;-82
2021/12/24 06:46:20;;;;;;;;;;;4.90;99.90;;;5.09;68.79;97048.25;5021355;28;20008;-82
2021/12/24 06:48:48;;;;;;;;;;;5.00;99.90;;;5.16;68.10;97054.91;5006450;28;20070;-82
2021/12/24 06:51:14;;;;;;;;;;;5.00;99.90;;;5.07;68.60;97045.06;5018441;28;19993;-82
2021/12/24 06:53:40;;;;;;;;;;;5.10;99.90;;;5.30;68.14;97051.59;5008051;28;19924;-82
2021/12/24 06:56:06;;;;;;;;;;;5.10;99.90;;;5.26;68.00;97054.00;5021001;28;20438;-82
2021/12/24 06:58:32;;;;;;;;;;;5.20;99.90;;;5.25;67.97;97049.72;5017670;28;19978;-82
2021/12/24 07:00:58;;;;;;;;;;;5.20;99.90;;;5.28;68.20;97070.66;5035874;28;20489;-82
2021/12/24 07:03:23;;;;;;;;;;;5.20;99.90;;;5.31;68.52;97067.41;5024644;28;19982;-82
2021/12/24 07:05:51;;;;;;;;;;;5.20;99.90;;;5.59;67.40;97065.81;5024853;28;19933;-82
2021/12/24 07:08:17;;;;;;;;;;;5.30;99.90;;;5.52;67.42;97059.16;5019887;28;20308;-82
2021/12/24 07:10:42;;;;;;;;;;;5.40;99.90;;;5.59;67.53;97051.56;5005356;28;19950;-82
2021/12/24 07:13:08;;;;;;;;;;;5.40;99.90;;;5.56;67.65;97055.63;5018502;28;19964;-82
2021/12/24 07:15:34;;;;;;;;;;;5.50;99.90;;;5.58;67.54;97055.38;5020963;28;19932;-82
2021/12/24 07:18:00;;;;;;;;;;;5.50;99.90;;;5.71;67.33;97052.00;5003473;28;19935;-83
2021/12/24 07:20:26;;;;;;;;;;;5.60;99.90;;;5.80;66.71;97053.00;5017511;28;19983;-82
2021/12/24 07:22:52;;;;;;;;;;;5.60;99.90;;;5.80;67.29;97049.47;5018283;28;19948;-82
2021/12/24 07:25:18;;;;;;;;;;;5.70;99.90;;;5.82;66.80;97040.03;5007551;28;19982;-83
2021/12/24 07:27:44;;;;;;;;;;;5.80;99.90;;;5.90;66.89;97032.41;4999603;28;20422;-82
2021/12/24 07:30:12;;;;;;;;;;;5.80;99.90;;;5.91;66.51;97050.19;5029898;28;20379;-82
2021/12/24 07:32:39;;;;;;;;;;;5.80;99.90;;;5.88;66.73;97048.88;5012828;28;20404;-82
2021/12/24 07:35:05;;;;;;;;;;;5.80;99.90;;;5.87;66.71;97039.19;5016277;28;19925;-82
2021/12/24 07:37:31;;;;;;;;;;;5.80;99.90;;;5.89;66.70;97031.63;5015398;28;19982;-83
2021/12/24 07:39:56;;;;;;;;;;;5.90;99.90;;;6.08;66.08;97043.28;5044746;28;20658;-82
2021/12/24 07:42:24;;;;;;;;;;;5.90;99.90;;;5.98;66.89;97029.13;4996834;28;20023;-82
2021/12/24 07:44:50;;;;;;;;;;;5.90;99.90;;;5.96;66.67;97044.78;5011569;28;20311;-82
2021/12/24 07:47:27;;;;;;;;;;;5.90;99.90;;;6.15;66.22;97024.06;5019143;28;19943;-82
2021/12/24 07:50:05;;;;;;;;;;;6.00;99.90;;;6.13;65.83;97026.28;5015042;28;20023;-82
2021/12/24 07:52:31;;;;;;;;;;;6.10;99.90;;;6.15;66.32;97028.66;5016409;28;20002;-82
2021/12/24 07:54:57;;;;;;;;;;;6.10;99.90;;;6.19;65.87;97025.09;5015151;28;20343;-82
2021/12/24 07:57:23;;;;;;;;;;;6.20;99.90;;;6.25;65.65;97042.78;5039658;28;19932;-82
2021/12/24 07:59:49;;;;;;;;;;;6.20;99.90;;;6.26;65.85;97043.63;5019527;28;20190;-82
2021/12/24 08:02:18;;;;;;;;;;;6.30;99.90;;;6.46;65.39;97034.44;5017784;28;19928;-82
2021/12/24 08:04:45;;;;;;;;;;;6.30;99.90;;;6.52;65.23;97034.09;5023381;28;19929;-82
2021/12/24 08:07:11;;;;;;;;;;;6.40;99.90;;;6.54;64.55;97036.50;5022225;28;20394;-82
2021/12/24 08:09:37;;;;;;;;;;;6.40;99.90;;;6.53;64.95;97032.19;5020539;28;20380;-82
2021/12/24 08:12:05;;;;;;;;;;;6.50;99.90;;;6.62;64.99;97025.09;5020071;28;20406;-82
2021/12/24 08:14:31;;;;;;;;;;;6.60;99.90;;;6.70;64.19;97035.19;5022055;28;19932;-82
2021/12/24 08:16:57;;;;;;;;;;;6.70;99.90;;;6.92;63.84;97017.63;5020585;28;19956;-82
2021/12/24 08:19:23;;;;;;;;;;;6.80;99.90;;;6.90;63.60;97012.53;5038302;28;19929;-82
2021/12/24 08:21:48;;;;;;;;;;;6.90;99.90;;;6.94;63.34;97015.44;5020060;28;19939;-82
2021/12/24 08:24:14;;;;;;;;;;;7.00;99.90;;;6.94;63.25;97010.03;5020878;28;19960;-81
2021/12/24 08:26:41;;;;;;;;;;;7.00;99.90;;;6.95;63.47;97025.94;5001314;28;19936;-81
2021/12/24 08:29:07;;;;;;;;;;;7.00;99.90;;;7.13;62.50;97032.38;5018837;28;19928;-82
2021/12/24 08:31:34;;;;;;;;;;;7.00;99.90;;;7.13;62.67;97028.91;5021609;28;19998;-81
2021/12/24 08:34:02;;;;;;;;;;;7.10;99.90;;;7.22;62.86;97019.03;5038492;28;19928;-82
2021/12/24 08:36:28;;;;;;;;;;;7.30;99.90;;;7.30;62.44;97001.38;5031716;28;20459;-82
2021/12/24 08:38:55;;;;;;;;;;;7.40;99.90;;;7.49;61.83;97018.31;5020699;28;20014;-81
2021/12/24 08:41:22;;;;;;;;;;;7.50;99.90;;;7.60;61.79;97018.91;5039131;28;19971;-82
2021/12/24 08:43:48;;;;;;;;;;;7.50;99.90;;;7.64;61.80;97019.13;5018361;28;19990;-81
2021/12/24 08:46:14;;;;;;;;;;;7.70;99.90;;;7.66;61.41;97023.13;5005442;28;19943;-81
2021/12/24 08:48:40;;;;;;;;;;;7.70;99.90;;;7.67;61.69;97026.63;5004473;28;19928;-81
2021/12/24 08:51:06;;;;;;;;;;;7.80;99.90;;;7.70;61.33;97007.13;5023476;28;19928;-81
2021/12/24 08:53:32;;;;;;;;;;;7.80;99.90;;;7.77;61.00;97021.03;5005262;28;19935;-81
2021/12/24 08:55:58;;;;;;;;;;;7.70;99.90;;;7.69;61.40;97008.25;5015357;28;19929;-81
2021/12/24 08:58:24;;;;;;;;;;;7.70;99.90;;;7.85;61.36;96998.75;5011001;28;19939;-80
2021/12/24 09:00:50;;;;;;;;;;;7.80;99.90;;;7.83;61.31;96999.03;5024211;28;19986;-81
2021/12/24 09:03:16;;;;;;;;;;;7.80;99.90;;;7.96;61.10;96996.63;5052033;28;20444;-80
2021/12/24 09:05:42;;;;;;;;;;;7.80;99.90;;;7.89;61.42;96999.75;5034019;28;20240;-81
2021/12/24 09:08:08;;;;;;;;;;;7.90;99.90;;;8.11;61.23;96990.94;5003096;28;20049;-80
2021/12/24 09:10:34;;;;;;;;;;;8.00;99.90;;;8.19;60.78;96994.81;5017836;28;19929;-80
2021/12/24 09:13:01;;;;;;;;;;;8.20;99.90;;;8.38;60.66;97000.09;5016435;28;19932;-81
2021/12/24 09:15:30;;;;;;;;;;;8.40;99.90;;;8.41;60.53;96994.13;5031582;28;19936;-81
2021/12/24 09:17:58;;;;;;;;;;;8.50;99.90;;;8.66;59.40;96992.75;5022584;28;19970;-80
2021/12/24 09:20:29;;;;;;;;;;;8.60;99.90;;;8.71;59.41;96989.94;5036650;28;19929;-81
2021/12/24 09:22:55;;;;;;;;;;;8.70;99.90;;;8.83;58.89;96994.81;5016158;28;19929;-81
2021/12/24 09:25:23;;;;;;;;;;;8.80;99.90;;;8.91;58.82;96984.06;5007035;28;19948;-80
2021/12/24 09:27:50;;;;;;;;;;;8.90;99.90;;;8.93;58.93;96975.66;5024378;28;20376;-81
2021/12/24 09:30:16;;;;;;;;;;;9.00;99.90;;;9.07;59.09;96962.84;5014065;28;19976;-80
2021/12/24 09:32:42;;;;;;;;;;;9.10;99.90;;;9.23;57.87;96974.06;5027000;28;19933;-80
2021/12/24 09:35:10;;;;;;;;;;;9.30;99.90;;;9.29;57.71;96969.34;5001819;28;19929;-80
2021/12/24 09:37:37;;;;;;;;;;;9.40;99.90;;;9.25;58.18;96968.38;4996728;28;19928;-81
2021/12/24 09:40:03;;;;;;;;;;;9.40;99.90;;;9.13;58.55;96963.50;5015184;28;19936;-80
2021/12/24 09:42:31;;;;;;;;;;;9.30;99.90;;;9.16;58.13;96954.78;5015583;28;20296;-80
2021/12/24 09:44:58;;;;;;;;;;;9.20;99.90;;;9.09;59.08;96944.41;5004393;28;20031;-81
2021/12/24 09:47:24;;;;;;;;;;;9.20;99.90;;;9.17;58.42;96955.59;5016304;28;19935;-81
2021/12/24 09:49:50;;;;;;;;;;;9.20;99.90;;;9.17;59.23;96956.38;5014362;28;19929;-81
2021/12/24 09:52:17;;;;;;;;;;;9.30;99.90;;;9.37;58.00;96952.34;5013580;28;19977;-80
2021/12/24 09:54:44;;;;;;;;;;;9.30;99.90;;;9.48;57.72;96950.19;5035796;28;19928;-81
2021/12/24 09:57:10;;;;;;;;;;;9.40;99.90;;;9.44;57.96;96944.59;5038483;28;19925;-81
2021/12/24 09:59:36;;;;;;;;;;;9.40;99.90;;;9.38;58.80;96940.41;5021847;28;19944;-80
2021/12/24 10:02:03;;;;;;;;;;;9.40;99.90;;;9.34;58.57;96932.13;5019219;28;19987;-81
2021/12/24 10:04:33;;;;;;;;;;;9.50;99.90;;;9.45;58.38;96937.28;5021287;28;19932;-81
2021/12/24 10:07:00;;;;;;;;;;;9.50;99.90;;;9.51;58.57;96954.97;5023787;28;20015;-81
2021/12/24 10:09:31;;;;;;;;;;;9.50;99.90;;;9.53;58.34;96941.91;5018267;28;20410;-81
2021/12/24 10:12:01;;;;;;;;;;;9.50;99.90;;;9.49;58.54;96951.75;5023624;28;20051;-81
2021/12/24 10:14:46;;;;;;;;;;;9.40;99.90;;;9.46;59.19;96941.56;5004196;28;20449;-81
2021/12/24 10:17:16;;;;;;;;;;;9.40;99.90;;;9.61;58.38;96943.84;5015631;28;20371;-81
2021/12/24 10:19:44;;;;;;;;;;;9.50;99.90;;;9.64;59.09;96951.38;5020733;28;19932;-80
2021/12/24 10:22:11;;;;;;;;;;;9.60;99.90;;;9.70;58.60;96939.28;5013220;28;20018;-81
2021/12/24 10:24:37;;;;;;;;;;;9.60;99.90;;;9.68;58.97;96938.78;5030080;28;20233;-81
2021/12/24 10:27:04;;;;;;;;;;;9.60;99.90;;;9.71;58.64;96940.06;5006942;28;19933;-82
2021/12/24 10:29:37;;;;;;;;;;;9.70;99.90;;;9.94;58.54;96924.53;5022566;28;20760;-83
2021/12/24 10:32:21;;;;;;;;;;;9.80;99.90;;;9.97;58.65;96935.56;5032228;28;20462;-82
2021/12/24 10:34:47;;;;;;;;;;;9.90;99.90;;;9.96;58.91;96923.09;5019829;28;20430;-83
2021/12/24 10:37:13;;;;;;;;;;;10.00;99.90;;;10.06;58.34;96921.22;4995359;28;19929;-82
2021/12/24 10:39:57;;;;;;;;;;;10.00;99.90;;;10.04;58.78;96918.81;5046318;28;19933;-82
2021/12/24 10:42:22;;;;;;;;;;;10.00;99.90;;;9.94;58.72;96903.66;5030580;28;19933;-82
2021/12/24 10:44:50;;;;;;;;;;;10.00;99.90;;;10.05;58.57;96920.44;5047401;28;20303;-82
2021/12/24 10:47:17;;;;;;;;;;;10.10;99.90;;;10.05;59.18;96909.59;5029558;28;20003;-82
2021/12/24 10:54:55;;;;;;;;;;;10.20;99.90;;;10.32;59.24;96883.34;5014284;28;20019;-83
2021/12/24 10:57:23;;;;;;;;;;;10.30;99.90;;;10.27;58.58;96886.19;5035975;28;19929;-83
2021/12/24 10:59:51;;;;;;;;;;;10.30;99.90;;;10.38;58.34;96887.47;5000649;28;20406;-83
2021/12/24 11:02:17;;;;;;;;;;;10.40;99.90;;;10.47;58.47;96893.69;5018011;28;20024;-83
2021/12/24 11:04:43;;;;;;;;;;;10.40;99.90;;;10.17;58.84;96907.03;5021140;28;19929;-83
2021/12/24 11:07:34;;;;;;;;;;;10.40;99.90;;;10.28;58.65;96906.75;5014865;28;19939;-82
2021/12/24 11:10:21;;;;;;;;;;;10.50;99.90;;;10.10;59.69;96898.59;5033176;28;20012;-83
2021/12/24 11:12:55;;;;;;;;;;;10.40;99.90;;;10.08;59.35;96903.53;5017651;28;20453;-83
2021/12/24 11:15:51;;;;;;;;;;;10.40;99.90;;;10.15;59.50;96911.19;5023851;28;19968;-83
2021/12/24 11:18:28;;;;;;;;;;;10.30;99.90;;;9.90;60.11;96913.53;5033958;28;19956;-82
2021/12/24 11:21:05;;;;;;;;;;;10.20;99.90;;;9.70;60.37;96895.97;5033456;28;19928;-83
2021/12/24 11:23:36;;;;;;;;;;;10.10;99.90;;;9.57;61.31;96907.72;5019242;28;19933;-82
2021/12/24 11:26:07;;;;;;;;;;;9.90;99.90;;;9.34;62.02;96898.88;5022330;28;19935;-83
2021/12/24 11:28:33;;;;;;;;;;;9.70;99.90;;;9.38;62.33;96889.00;5020996;28;19935;-82
2021/12/24 11:31:11;;;;;;;;;;;9.60;99.90;;;9.31;62.52;96873.22;5034857;28;20510;-83
2021/12/24 11:33:38;;;;;;;;;;;9.50;99.90;;;9.34;62.35;96863.69;5040293;28;20300;-83
2021/12/24 11:36:06;;;;;;;;;;;9.50;99.90;;;9.47;62.48;96856.56;4998802;28;19929;-83
2021/12/24 11:38:39;;;;;;;;;;;9.50;99.90;;;9.46;62.55;96858.47;5020026;28;20319;-83
2021/12/24 11:41:08;;;;;;;;;;;9.60;99.90;;;9.65;62.84;96852.00;5012226;28;19925;-83
2021/12/24 11:43:35;;;;;;;;;;;9.70;99.90;;;9.86;62.09;96868.44;5025837;28;20023;-83
2021/12/24 11:46:03;;;;;;;;;;;9.90;99.90;;;10.05;61.83;96855.41;5043814;28;20221;-83
2021/12/24 11:48:32;;;;;;;;;;;10.10;99.90;;;10.06;61.58;96857.00;5010732;28;19933;-83
2021/12/24 11:51:07;;;;;;;;;;;10.20;99.90;;;10.24;61.08;96857.81;5011121;28;20376;-83
2021/12/24 11:53:34;;;;;;;;;;;10.40;99.90;;;10.20;60.75;96859.53;5006967;28;19932;-83
2021/12/24 11:56:04;;;;;;;;;;;10.40;99.90;;;10.23;60.70;96858.94;5021427;28;19940;-83
2021/12/24 11:58:32;;;;;;;;;;;10.40;99.90;;;10.13;61.08;96861.97;5018412;28;20461;-83
2021/12/24 12:01:04;;;;;;;;;;;10.40;99.90;;;10.20;61.19;96856.84;5027649;28;19971;-82
2021/12/24 12:03:46;;;;;;;;;;;10.30;99.90;;;10.05;61.20;96866.25;5039363;28;19978;-83
2021/12/24 12:06:24;;;;;;;;;;;10.30;99.90;;;10.11;60.95;96858.75;5025871;28;20276;-83
2021/12/24 12:08:54;;;;;;;;;;;10.20;99.90;;;10.04;60.81;96851.09;5050466;28;20011;-82
2021/12/24 12:11:21;;;;;;;;;;;10.20;99.90;;;9.89;61.36;96846.94;5024719;28;20413;-83
2021/12/24 12:13:49;;;;;;;;;;;10.10;99.90;;;9.75;61.71;96847.09;5039453;28;19929;-83
2021/12/24 12:16:22;;;;;;;;;;;10.00;99.90;;;9.67;62.11;96834.34;5009827;28;20711;-83
2021/12/24 12:19:01;;;;;;;;;;;9.80;99.90;;;9.59;62.42;96843.22;5026029;28;19964;-82
2021/12/24 12:21:42;;;;;;;;;;;9.80;99.90;;;9.56;62.55;96839.22;5026596;28;19977;-83
2021/12/24 12:26:43;;;;;;;;;;;9.60;99.90;;;9.56;62.77;96841.13;5039878;28;19933;-82
2021/12/24 12:29:15;;;;;;;;;;;9.60;99.90;;;9.62;62.72;96830.97;5025440;28;19964;-82
2021/12/24 12:31:40;;;;;;;;;;;9.70;99.90;;;9.84;61.97;96819.22;5054982;28;19979;-83
2021/12/24 12:34:41;;;;;;;;;;;9.80;99.90;;;9.82;61.91;96837.69;5008283;28;20392;-82
2021/12/24 12:37:23;;;;;;;;;;;9.90;99.90;;;9.84;61.64;96838.16;5048547;28;19982;-83
2021/12/24 12:40:11;;;;;;;;;;;10.00;99.90;;;9.69;62.31;96847.53;5039126;28;20303;-83
2021/12/24 12:42:50;;;;;;;;;;;9.90;99.90;;;9.50;62.44;96843.19;5023353;28;20019;-83
2021/12/24 12:45:18;;;;;;;;;;;9.70;99.90;;;9.42;63.45;96856.72;5057778;28;19935;-83
2021/12/24 12:47:51;;;;;;;;;;;9.60;99.90;;;9.48;63.38;96839.22;5015286;28;20005;-82
2021/12/24 12:50:17;;;;;;;;;;;9.50;99.90;;;9.33;63.54;96840.44;5020473;28;20428;-82
2021/12/24 12:52:43;;;;;;;;;;;9.40;99.90;;;9.25;63.81;96849.31;5011797;28;19928;-82
2021/12/24 12:55:29;;;;;;;;;;;9.30;99.90;;;9.33;63.38;96856.66;5040471;28;19932;-82
2021/12/24 12:58:22;;;;;;;;;;;9.30;99.90;;;9.26;63.49;96856.31;5022876;28;19929;-83
2021/12/24 13:01:10;;;;;;;;;;;9.20;99.90;;;9.34;64.30;96847.47;5033773;28;20372;-83
2021/12/24 13:03:56;;;;;;;;;;;9.30;99.90;;;9.37;64.78;96851.44;5037150;28;19964;-83
2021/12/24 13:06:46;;;;;;;;;;;9.30;99.90;;;9.22;64.82;96842.63;5053433;28;19928;-83
2021/12/24 13:09:14;;;;;;;;;;;9.30;99.90;;;9.36;65.00;96856.03;5030029;28;19935;-83
2021/12/24 13:11:41;;;;;;;;;;;9.30;99.90;;;9.35;65.04;96849.84;5037991;28;19933;-83
2021/12/24 13:14:07;;;;;;;;;;;9.20;99.90;;;9.31;65.04;96859.72;5040248;28;19935;-83
2021/12/24 13:17:04;;;;;;;;;;;9.40;99.90;;;9.35;64.61;96863.38;5037577;28;19932;-83
2021/12/24 13:19:58;;;;;;;;;;;9.40;99.90;;;9.50;64.69;96864.06;5025540;28;19964;-83
2021/12/24 13:22:28;;;;;;;;;;;9.50;99.90;;;9.34;65.37;96861.78;5027965;28;19935;-83
2021/12/24 13:25:02;;;;;;;;;;;9.50;99.90;;;9.47;65.09;96851.16;5025999;28;19935;-83
2021/12/24 13:27:39;;;;;;;;;;;9.40;99.90;;;9.42;65.16;96859.44;5004234;28;19929;-83
2021/12/24 13:30:17;;;;;;;;;;;9.40;99.90;;;9.45;64.90;96869.63;5034742;28;19924;-83
2021/12/24 13:32:43;;;;;;;;;;;9.40;99.90;;;9.44;64.80;96879.66;5054006;28;19943;-83